sensor_id;sensor_type;location;lat;lon;timestamp;P1;durP1;ratioP1;P2;durP2;ratioP2
24145;SDS011;12308;50.948;4.706;2022-07-24T00:02:23;35.05;;;26.15;;
24145;SDS011;12308;50.948;4.706;2022-07-24T00:04:49;38.92;;;27.35;;
24145;SDS011;12308;50.948;4.706;2022-07-24T00:07:15;32.42;;;24.80;;
24145;SDS011;12308;50.948;4.706;2022-07-24T00:09:41;34.50;;;25.42;;
24145;SDS011;12308;50.948;4.706;2022-07-24T00:12:07;35.72;;;26.02;;
24145;SDS011;12308;50.948;4.706;2022-07-24T00:14:33;36.58;;;25.27;;
24145;SDS011;12308;50.948;4.706;2022-07-24T00:16:58;35.17;;;26.48;;
24145;SDS011;12308;50.948;4.706;2022-07-24T00:19:24;38.50;;;26.88;;
24145;SDS011;12308;50.948;4.706;2022-07-24T00:21:50;37.17;;;26.90;;
24145;SDS011;12308;50.948;4.706;2022-07-24T00:24:16;37.00;;;27.52;;
24145;SDS011;12308;50.948;4.706;2022-07-24T00:26:41;37.33;;;28.77;;
24145;SDS011;12308;50.948;4.706;2022-07-24T00:29:07;42.33;;;31.20;;
24145;SDS011;12308;50.948;4.706;2022-07-24T00:31:33;47.10;;;32.38;;
24145;SDS011;12308;50.948;4.706;2022-07-24T00:33:59;49.88;;;33.33;;
24145;SDS011;12308;50.948;4.706;2022-07-24T00:36:25;54.80;;;35.92;;
24145;SDS011;12308;50.948;4.706;2022-07-24T00:38:51;51.15;;;35.50;;
24145;SDS011;12308;50.948;4.706;2022-07-24T00:41:16;48.85;;;35.33;;
24145;SDS011;12308;50.948;4.706;2022-07-24T00:43:57;52.47;;;37.72;;
24145;SDS011;12308;50.948;4.706;2022-07-24T00:46:34;49.45;;;36.47;;
24145;SDS011;12308;50.948;4.706;2022-07-24T00:49:02;52.03;;;37.88;;
24145;SDS011;12308;50.948;4.706;2022-07-24T00:51:29;51.38;;;36.55;;
24145;SDS011;12308;50.948;4.706;2022-07-24T00:53:55;56.10;;;37.80;;
24145;SDS011;12308;50.948;4.706;2022-07-24T00:56:21;51.53;;;37.47;;
24145;SDS011;12308;50.948;4.706;2022-07-24T00:58:47;51.45;;;36.40;;
24145;SDS011;12308;50.948;4.706;2022-07-24T01:01:14;47.92;;;35.30;;
24145;SDS011;12308;50.948;4.706;2022-07-24T01:03:40;49.38;;;35.20;;
24145;SDS011;12308;50.948;4.706;2022-07-24T01:06:06;45.63;;;34.47;;
24145;SDS011;12308;50.948;4.706;2022-07-24T01:08:33;48.05;;;33.08;;
24145;SDS011;12308;50.948;4.706;2022-07-24T01:11:00;47.83;;;32.47;;
24145;SDS011;12308;50.948;4.706;2022-07-24T01:13:28;48.30;;;32.42;;
24145;SDS011;12308;50.948;4.706;2022-07-24T01:15:55;50.05;;;31.80;;
24145;SDS011;12308;50.948;4.706;2022-07-24T01:18:21;42.47;;;31.40;;
24145;SDS011;12308;50.948;4.706;2022-07-24T01:20:47;46.00;;;31.58;;
24145;SDS011;12308;50.948;4.706;2022-07-24T01:23:13;46.83;;;32.85;;
24145;SDS011;12308;50.948;4.706;2022-07-24T01:25:39;46.05;;;34.03;;
24145;SDS011;12308;50.948;4.706;2022-07-24T01:28:05;49.67;;;34.55;;
24145;SDS011;12308;50.948;4.706;2022-07-24T01:30:31;51.08;;;34.20;;
24145;SDS011;12308;50.948;4.706;2022-07-24T01:32:57;51.20;;;33.00;;
24145;SDS011;12308;50.948;4.706;2022-07-24T01:35:23;49.67;;;33.72;;
24145;SDS011;12308;50.948;4.706;2022-07-24T01:37:49;50.28;;;33.92;;
24145;SDS011;12308;50.948;4.706;2022-07-24T01:40:16;47.78;;;34.85;;
24145;SDS011;12308;50.948;4.706;2022-07-24T01:42:42;50.63;;;36.05;;
24145;SDS011;12308;50.948;4.706;2022-07-24T01:45:08;49.70;;;36.10;;
24145;SDS011;12308;50.948;4.706;2022-07-24T01:47:34;54.13;;;35.55;;
24145;SDS011;12308;50.948;4.706;2022-07-24T01:49:59;51.85;;;36.60;;
24145;SDS011;12308;50.948;4.706;2022-07-24T01:52:25;47.58;;;35.97;;
24145;SDS011;12308;50.948;4.706;2022-07-24T01:54:51;49.17;;;34.50;;
24145;SDS011;12308;50.948;4.706;2022-07-24T01:57:17;46.85;;;33.35;;
24145;SDS011;12308;50.948;4.706;2022-07-24T01:59:43;47.38;;;33.20;;
24145;SDS011;12308;50.948;4.706;2022-07-24T02:02:09;47.03;;;33.85;;
24145;SDS011;12308;50.948;4.706;2022-07-24T02:04:34;46.70;;;33.17;;
24145;SDS011;12308;50.948;4.706;2022-07-24T02:07:00;48.22;;;32.42;;
24145;SDS011;12308;50.948;4.706;2022-07-24T02:09:25;48.70;;;33.83;;
24145;SDS011;12308;50.948;4.706;2022-07-24T02:11:51;52.20;;;34.13;;
24145;SDS011;12308;50.948;4.706;2022-07-24T02:14:17;50.10;;;34.58;;
24145;SDS011;12308;50.948;4.706;2022-07-24T02:16:43;49.97;;;36.28;;
24145;SDS011;12308;50.948;4.706;2022-07-24T02:19:09;48.63;;;34.40;;
24145;SDS011;12308;50.948;4.706;2022-07-24T02:21:35;48.33;;;34.72;;
24145;SDS011;12308;50.948;4.706;2022-07-24T02:24:00;51.55;;;34.35;;
24145;SDS011;12308;50.948;4.706;2022-07-24T02:26:26;50.63;;;34.25;;
24145;SDS011;12308;50.948;4.706;2022-07-24T02:28:52;51.65;;;35.80;;
24145;SDS011;12308;50.948;4.706;2022-07-24T02:31:17;53.35;;;36.03;;
24145;SDS011;12308;50.948;4.706;2022-07-24T02:33:44;60.80;;;38.33;;
24145;SDS011;12308;50.948;4.706;2022-07-24T02:36:09;59.03;;;39.88;;
24145;SDS011;12308;50.948;4.706;2022-07-24T02:38:35;65.20;;;40.15;;
24145;SDS011;12308;50.948;4.706;2022-07-24T02:41:01;59.25;;;39.88;;
24145;SDS011;12308;50.948;4.706;2022-07-24T02:43:27;63.40;;;41.45;;
24145;SDS011;12308;50.948;4.706;2022-07-24T02:45:53;66.13;;;42.28;;
24145;SDS011;12308;50.948;4.706;2022-07-24T02:48:19;63.50;;;40.88;;
24145;SDS011;12308;50.948;4.706;2022-07-24T02:50:45;63.28;;;40.10;;
24145;SDS011;12308;50.948;4.706;2022-07-24T02:53:11;59.55;;;38.25;;
24145;SDS011;12308;50.948;4.706;2022-07-24T02:55:37;55.20;;;37.22;;
24145;SDS011;12308;50.948;4.706;2022-07-24T02:58:02;53.78;;;36.63;;
24145;SDS011;12308;50.948;4.706;2022-07-24T03:00:28;52.90;;;35.42;;
24145;SDS011;12308;50.948;4.706;2022-07-24T03:02:54;53.83;;;34.85;;
24145;SDS011;12308;50.948;4.706;2022-07-24T03:05:21;59.40;;;37.45;;
24145;SDS011;12308;50.948;4.706;2022-07-24T03:07:47;57.28;;;37.10;;
24145;SDS011;12308;50.948;4.706;2022-07-24T03:10:13;57.88;;;35.22;;
24145;SDS011;12308;50.948;4.706;2022-07-24T03:12:40;55.55;;;35.88;;
24145;SDS011;12308;50.948;4.706;2022-07-24T03:15:07;49.92;;;34.63;;
24145;SDS011;12308;50.948;4.706;2022-07-24T03:17:34;56.38;;;35.65;;
24145;SDS011;12308;50.948;4.706;2022-07-24T03:19:59;52.65;;;36.30;;
24145;SDS011;12308;50.948;4.706;2022-07-24T03:22:25;56.97;;;37.88;;
24145;SDS011;12308;50.948;4.706;2022-07-24T03:24:51;66.05;;;38.78;;
24145;SDS011;12308;50.948;4.706;2022-07-24T03:27:16;53.47;;;35.97;;
24145;SDS011;12308;50.948;4.706;2022-07-24T03:29:42;55.33;;;36.58;;
24145;SDS011;12308;50.948;4.706;2022-07-24T03:32:08;60.90;;;36.80;;
24145;SDS011;12308;50.948;4.706;2022-07-24T03:34:33;57.20;;;37.67;;
24145;SDS011;12308;50.948;4.706;2022-07-24T03:36:59;58.03;;;39.00;;
24145;SDS011;12308;50.948;4.706;2022-07-24T03:39:25;60.72;;;39.65;;
24145;SDS011;12308;50.948;4.706;2022-07-24T03:41:50;57.85;;;38.03;;
24145;SDS011;12308;50.948;4.706;2022-07-24T03:44:16;63.72;;;42.35;;
24145;SDS011;12308;50.948;4.706;2022-07-24T03:46:42;69.40;;;43.38;;
24145;SDS011;12308;50.948;4.706;2022-07-24T03:49:07;68.43;;;42.28;;
24145;SDS011;12308;50.948;4.706;2022-07-24T03:51:33;59.25;;;41.35;;
24145;SDS011;12308;50.948;4.706;2022-07-24T03:54:00;65.50;;;41.33;;
24145;SDS011;12308;50.948;4.706;2022-07-24T03:56:27;66.63;;;43.95;;
24145;SDS011;12308;50.948;4.706;2022-07-24T03:58:53;64.50;;;44.55;;
24145;SDS011;12308;50.948;4.706;2022-07-24T04:01:20;61.90;;;43.67;;
24145;SDS011;12308;50.948;4.706;2022-07-24T04:03:47;64.53;;;43.15;;
24145;SDS011;12308;50.948;4.706;2022-07-24T04:06:12;69.18;;;44.20;;
24145;SDS011;12308;50.948;4.706;2022-07-24T04:08:38;63.25;;;43.00;;
24145;SDS011;12308;50.948;4.706;2022-07-24T04:11:04;62.15;;;42.83;;
24145;SDS011;12308;50.948;4.706;2022-07-24T04:13:32;68.18;;;44.47;;
24145;SDS011;12308;50.948;4.706;2022-07-24T04:15:58;64.57;;;43.63;;
24145;SDS011;12308;50.948;4.706;2022-07-24T04:18:24;71.63;;;45.80;;
24145;SDS011;12308;50.948;4.706;2022-07-24T04:20:50;63.53;;;42.28;;
24145;SDS011;12308;50.948;4.706;2022-07-24T04:23:16;66.43;;;43.40;;
24145;SDS011;12308;50.948;4.706;2022-07-24T04:25:42;62.55;;;42.90;;
24145;SDS011;12308;50.948;4.706;2022-07-24T04:28:07;62.42;;;41.20;;
24145;SDS011;12308;50.948;4.706;2022-07-24T04:30:33;67.45;;;43.70;;
24145;SDS011;12308;50.948;4.706;2022-07-24T04:32:59;67.32;;;43.05;;
24145;SDS011;12308;50.948;4.706;2022-07-24T04:35:24;57.33;;;39.75;;
24145;SDS011;12308;50.948;4.706;2022-07-24T04:37:50;64.65;;;41.75;;
24145;SDS011;12308;50.948;4.706;2022-07-24T04:40:16;64.25;;;40.47;;
24145;SDS011;12308;50.948;4.706;2022-07-24T04:42:42;60.83;;;41.05;;
24145;SDS011;12308;50.948;4.706;2022-07-24T04:45:08;65.15;;;40.50;;
24145;SDS011;12308;50.948;4.706;2022-07-24T04:47:34;61.80;;;41.95;;
24145;SDS011;12308;50.948;4.706;2022-07-24T04:50:01;64.78;;;41.83;;
24145;SDS011;12308;50.948;4.706;2022-07-24T04:52:27;65.63;;;43.05;;
24145;SDS011;12308;50.948;4.706;2022-07-24T04:54:53;65.82;;;42.72;;
24145;SDS011;12308;50.948;4.706;2022-07-24T04:57:19;63.17;;;42.83;;
24145;SDS011;12308;50.948;4.706;2022-07-24T04:59:44;61.90;;;43.53;;
24145;SDS011;12308;50.948;4.706;2022-07-24T05:02:10;63.95;;;43.10;;
24145;SDS011;12308;50.948;4.706;2022-07-24T05:04:36;62.53;;;43.85;;
24145;SDS011;12308;50.948;4.706;2022-07-24T05:07:02;63.58;;;42.92;;
24145;SDS011;12308;50.948;4.706;2022-07-24T05:09:28;64.80;;;44.35;;
24145;SDS011;12308;50.948;4.706;2022-07-24T05:11:54;64.68;;;43.35;;
24145;SDS011;12308;50.948;4.706;2022-07-24T05:14:19;63.65;;;43.90;;
24145;SDS011;12308;50.948;4.706;2022-07-24T05:16:45;62.33;;;42.35;;
24145;SDS011;12308;50.948;4.706;2022-07-24T05:19:11;60.63;;;41.53;;
24145;SDS011;12308;50.948;4.706;2022-07-24T05:21:36;64.40;;;43.35;;
24145;SDS011;12308;50.948;4.706;2022-07-24T05:24:02;65.07;;;43.85;;
24145;SDS011;12308;50.948;4.706;2022-07-24T05:26:28;65.82;;;43.38;;
24145;SDS011;12308;50.948;4.706;2022-07-24T05:28:57;60.85;;;44.28;;
24145;SDS011;12308;50.948;4.706;2022-07-24T05:31:24;63.17;;;41.53;;
24145;SDS011;12308;50.948;4.706;2022-07-24T05:33:49;65.97;;;44.55;;
24145;SDS011;12308;50.948;4.706;2022-07-24T05:36:15;67.00;;;41.97;;
24145;SDS011;12308;50.948;4.706;2022-07-24T05:38:41;63.28;;;41.20;;
24145;SDS011;12308;50.948;4.706;2022-07-24T05:41:07;58.35;;;40.90;;
24145;SDS011;12308;50.948;4.706;2022-07-24T05:43:33;67.32;;;40.20;;
24145;SDS011;12308;50.948;4.706;2022-07-24T05:45:58;65.35;;;39.42;;
24145;SDS011;12308;50.948;4.706;2022-07-24T05:48:24;58.30;;;39.25;;
24145;SDS011;12308;50.948;4.706;2022-07-24T05:50:50;55.55;;;36.38;;
24145;SDS011;12308;50.948;4.706;2022-07-24T05:53:15;53.05;;;36.92;;
24145;SDS011;12308;50.948;4.706;2022-07-24T05:55:41;50.35;;;36.05;;
24145;SDS011;12308;50.948;4.706;2022-07-24T05:58:07;47.50;;;33.10;;
24145;SDS011;12308;50.948;4.706;2022-07-24T06:00:32;48.45;;;32.80;;
24145;SDS011;12308;50.948;4.706;2022-07-24T06:02:58;45.90;;;30.80;;
24145;SDS011;12308;50.948;4.706;2022-07-24T06:05:24;43.45;;;29.42;;
24145;SDS011;12308;50.948;4.706;2022-07-24T06:07:49;40.35;;;29.67;;
24145;SDS011;12308;50.948;4.706;2022-07-24T06:10:15;39.95;;;26.77;;
24145;SDS011;12308;50.948;4.706;2022-07-24T06:12:41;38.80;;;25.27;;
24145;SDS011;12308;50.948;4.706;2022-07-24T06:15:07;36.53;;;25.33;;
24145;SDS011;12308;50.948;4.706;2022-07-24T06:17:33;33.22;;;25.13;;
24145;SDS011;12308;50.948;4.706;2022-07-24T06:19:59;37.60;;;25.00;;
24145;SDS011;12308;50.948;4.706;2022-07-24T06:22:24;34.88;;;24.98;;
24145;SDS011;12308;50.948;4.706;2022-07-24T06:24:50;37.38;;;24.00;;
24145;SDS011;12308;50.948;4.706;2022-07-24T06:27:16;33.22;;;23.30;;
24145;SDS011;12308;50.948;4.706;2022-07-24T06:29:41;31.60;;;21.30;;
24145;SDS011;12308;50.948;4.706;2022-07-24T06:32:07;27.65;;;20.27;;
24145;SDS011;12308;50.948;4.706;2022-07-24T06:34:33;32.22;;;20.75;;
24145;SDS011;12308;50.948;4.706;2022-07-24T06:36:59;28.02;;;20.00;;
24145;SDS011;12308;50.948;4.706;2022-07-24T06:39:24;29.70;;;20.65;;
24145;SDS011;12308;50.948;4.706;2022-07-24T06:41:50;28.60;;;18.65;;
24145;SDS011;12308;50.948;4.706;2022-07-24T06:44:16;25.40;;;18.15;;
24145;SDS011;12308;50.948;4.706;2022-07-24T06:46:41;24.25;;;17.02;;
24145;SDS011;12308;50.948;4.706;2022-07-24T06:49:07;24.13;;;15.60;;
24145;SDS011;12308;50.948;4.706;2022-07-24T06:51:32;23.65;;;15.40;;
24145;SDS011;12308;50.948;4.706;2022-07-24T06:53:58;23.05;;;15.45;;
24145;SDS011;12308;50.948;4.706;2022-07-24T06:56:24;31.48;;;15.40;;
24145;SDS011;12308;50.948;4.706;2022-07-24T06:58:49;25.70;;;16.40;;
24145;SDS011;12308;50.948;4.706;2022-07-24T07:01:16;26.02;;;15.38;;
24145;SDS011;12308;50.948;4.706;2022-07-24T07:03:42;24.05;;;15.93;;
24145;SDS011;12308;50.948;4.706;2022-07-24T07:06:07;22.83;;;15.20;;
24145;SDS011;12308;50.948;4.706;2022-07-24T07:08:33;24.95;;;15.77;;
24145;SDS011;12308;50.948;4.706;2022-07-24T07:10:59;27.58;;;17.17;;
24145;SDS011;12308;50.948;4.706;2022-07-24T07:13:25;30.58;;;17.70;;
24145;SDS011;12308;50.948;4.706;2022-07-24T07:15:51;28.55;;;16.85;;
24145;SDS011;12308;50.948;4.706;2022-07-24T07:18:16;35.17;;;19.10;;
24145;SDS011;12308;50.948;4.706;2022-07-24T07:20:42;39.03;;;19.45;;
24145;SDS011;12308;50.948;4.706;2022-07-24T07:23:08;32.80;;;18.75;;
24145;SDS011;12308;50.948;4.706;2022-07-24T07:25:33;33.17;;;18.50;;
24145;SDS011;12308;50.948;4.706;2022-07-24T07:27:59;33.17;;;19.20;;
24145;SDS011;12308;50.948;4.706;2022-07-24T07:30:25;32.92;;;19.67;;
24145;SDS011;12308;50.948;4.706;2022-07-24T07:32:50;29.52;;;17.38;;
24145;SDS011;12308;50.948;4.706;2022-07-24T07:35:16;34.15;;;18.05;;
24145;SDS011;12308;50.948;4.706;2022-07-24T07:37:44;32.55;;;17.92;;
24145;SDS011;12308;50.948;4.706;2022-07-24T07:40:11;31.70;;;16.88;;
24145;SDS011;12308;50.948;4.706;2022-07-24T07:42:37;26.40;;;15.45;;
24145;SDS011;12308;50.948;4.706;2022-07-24T07:45:02;24.88;;;14.60;;
24145;SDS011;12308;50.948;4.706;2022-07-24T07:47:29;24.15;;;14.45;;
24145;SDS011;12308;50.948;4.706;2022-07-24T07:49:54;23.58;;;13.13;;
24145;SDS011;12308;50.948;4.706;2022-07-24T07:52:20;18.13;;;11.95;;
24145;SDS011;12308;50.948;4.706;2022-07-24T07:54:46;19.75;;;12.38;;
24145;SDS011;12308;50.948;4.706;2022-07-24T07:57:12;20.95;;;11.63;;
24145;SDS011;12308;50.948;4.706;2022-07-24T07:59:37;20.02;;;11.68;;
24145;SDS011;12308;50.948;4.706;2022-07-24T08:02:03;19.90;;;11.38;;
24145;SDS011;12308;50.948;4.706;2022-07-24T08:04:29;14.15;;;8.77;;
24145;SDS011;12308;50.948;4.706;2022-07-24T08:06:54;15.50;;;9.23;;
24145;SDS011;12308;50.948;4.706;2022-07-24T08:09:20;14.38;;;8.00;;
24145;SDS011;12308;50.948;4.706;2022-07-24T08:11:46;13.40;;;8.60;;
24145;SDS011;12308;50.948;4.706;2022-07-24T08:14:12;11.13;;;7.88;;
24145;SDS011;12308;50.948;4.706;2022-07-24T08:16:37;12.00;;;8.38;;
24145;SDS011;12308;50.948;4.706;2022-07-24T08:19:03;16.25;;;10.25;;
24145;SDS011;12308;50.948;4.706;2022-07-24T08:21:29;14.95;;;9.02;;
24145;SDS011;12308;50.948;4.706;2022-07-24T08:23:56;14.95;;;8.68;;
24145;SDS011;12308;50.948;4.706;2022-07-24T08:26:22;11.50;;;6.80;;
24145;SDS011;12308;50.948;4.706;2022-07-24T08:28:47;9.35;;;5.88;;
24145;SDS011;12308;50.948;4.706;2022-07-24T08:31:13;9.45;;;6.00;;
24145;SDS011;12308;50.948;4.706;2022-07-24T08:33:39;9.10;;;6.10;;
24145;SDS011;12308;50.948;4.706;2022-07-24T08:36:05;9.30;;;5.60;;
24145;SDS011;12308;50.948;4.706;2022-07-24T08:38:31;9.27;;;5.97;;
24145;SDS011;12308;50.948;4.706;2022-07-24T08:40:56;8.82;;;5.57;;
24145;SDS011;12308;50.948;4.706;2022-07-24T08:43:22;7.68;;;5.93;;
24145;SDS011;12308;50.948;4.706;2022-07-24T08:45:48;7.38;;;5.47;;
24145;SDS011;12308;50.948;4.706;2022-07-24T08:48:17;8.30;;;5.72;;
24145;SDS011;12308;50.948;4.706;2022-07-24T08:50:46;6.60;;;4.95;;
24145;SDS011;12308;50.948;4.706;2022-07-24T08:53:12;7.75;;;5.30;;
24145;SDS011;12308;50.948;4.706;2022-07-24T08:55:38;8.30;;;5.28;;
24145;SDS011;12308;50.948;4.706;2022-07-24T08:58:04;7.95;;;5.13;;
24145;SDS011;12308;50.948;4.706;2022-07-24T09:00:30;7.57;;;5.07;;
24145;SDS011;12308;50.948;4.706;2022-07-24T09:02:57;8.30;;;5.28;;
24145;SDS011;12308;50.948;4.706;2022-07-24T09:05:23;7.00;;;5.15;;
24145;SDS011;12308;50.948;4.706;2022-07-24T09:07:48;9.15;;;5.10;;
24145;SDS011;12308;50.948;4.706;2022-07-24T09:10:15;4.97;;;4.20;;
24145;SDS011;12308;50.948;4.706;2022-07-24T09:12:46;5.53;;;3.83;;
24145;SDS011;12308;50.948;4.706;2022-07-24T09:15:13;7.70;;;4.32;;
24145;SDS011;12308;50.948;4.706;2022-07-24T09:17:47;5.70;;;4.10;;
24145;SDS011;12308;50.948;4.706;2022-07-24T09:20:14;5.80;;;4.13;;
24145;SDS011;12308;50.948;4.706;2022-07-24T09:22:41;7.60;;;4.13;;
24145;SDS011;12308;50.948;4.706;2022-07-24T09:27:41;7.78;;;3.95;;
24145;SDS011;12308;50.948;4.706;2022-07-24T09:30:30;5.82;;;3.75;;
24145;SDS011;12308;50.948;4.706;2022-07-24T09:35:24;4.32;;;3.55;;
24145;SDS011;12308;50.948;4.706;2022-07-24T09:37:58;6.20;;;3.38;;
24145;SDS011;12308;50.948;4.706;2022-07-24T09:40:31;5.63;;;3.90;;
24145;SDS011;12308;50.948;4.706;2022-07-24T09:45:59;6.68;;;3.38;;
24145;SDS011;12308;50.948;4.706;2022-07-24T09:50:56;6.10;;;3.38;;
24145;SDS011;12308;50.948;4.706;2022-07-24T09:53:24;3.85;;;3.00;;
24145;SDS011;12308;50.948;4.706;2022-07-24T09:55:59;3.28;;;2.75;;
24145;SDS011;12308;50.948;4.706;2022-07-24T09:58:27;3.67;;;2.85;;
24145;SDS011;12308;50.948;4.706;2022-07-24T10:00:55;3.42;;;2.92;;
24145;SDS011;12308;50.948;4.706;2022-07-24T10:03:26;4.50;;;3.35;;
24145;SDS011;12308;50.948;4.706;2022-07-24T10:06:12;7.38;;;2.30;;
24145;SDS011;12308;50.948;4.706;2022-07-24T10:08:40;5.85;;;2.92;;
24145;SDS011;12308;50.948;4.706;2022-07-24T10:11:08;6.40;;;2.95;;
24145;SDS011;12308;50.948;4.706;2022-07-24T10:13:35;4.45;;;2.58;;
24145;SDS011;12308;50.948;4.706;2022-07-24T10:18:54;4.05;;;2.67;;
24145;SDS011;12308;50.948;4.706;2022-07-24T10:21:23;4.43;;;2.67;;
24145;SDS011;12308;50.948;4.706;2022-07-24T10:29:14;4.63;;;2.92;;
24145;SDS011;12308;50.948;4.706;2022-07-24T10:31:51;4.80;;;3.20;;
24145;SDS011;12308;50.948;4.706;2022-07-24T10:42:08;5.43;;;2.90;;
24145;SDS011;12308;50.948;4.706;2022-07-24T10:44:33;2.85;;;2.40;;
24145;SDS011;12308;50.948;4.706;2022-07-24T10:49:34;5.30;;;2.97;;
24145;SDS011;12308;50.948;4.706;2022-07-24T10:52:02;3.10;;;2.80;;
24145;SDS011;12308;50.948;4.706;2022-07-24T10:54:28;4.00;;;2.78;;
24145;SDS011;12308;50.948;4.706;2022-07-24T10:56:54;3.80;;;2.67;;
24145;SDS011;12308;50.948;4.706;2022-07-24T10:59:36;3.25;;;2.50;;
24145;SDS011;12308;50.948;4.706;2022-07-24T11:10:48;6.82;;;2.42;;
24145;SDS011;12308;50.948;4.706;2022-07-24T11:19:25;4.13;;;2.20;;
24145;SDS011;12308;50.948;4.706;2022-07-24T11:21:39;2.75;;;1.98;;
24145;SDS011;12308;50.948;4.706;2022-07-24T11:29:33;4.15;;;2.20;;
24145;SDS011;12308;50.948;4.706;2022-07-24T11:34:31;5.82;;;2.15;;
24145;SDS011;12308;50.948;4.706;2022-07-24T11:36:57;3.00;;;2.60;;
24145;SDS011;12308;50.948;4.706;2022-07-24T11:39:28;3.25;;;2.60;;
24145;SDS011;12308;50.948;4.706;2022-07-24T11:41:57;4.47;;;2.17;;
24145;SDS011;12308;50.948;4.706;2022-07-24T11:44:26;7.25;;;2.30;;
24145;SDS011;12308;50.948;4.706;2022-07-24T11:49:27;4.93;;;2.70;;
24145;SDS011;12308;50.948;4.706;2022-07-24T11:51:54;8.18;;;2.42;;
24145;SDS011;12308;50.948;4.706;2022-07-24T11:54:21;7.97;;;2.50;;
24145;SDS011;12308;50.948;4.706;2022-07-24T11:56:49;4.85;;;2.20;;
24145;SDS011;12308;50.948;4.706;2022-07-24T11:59:31;3.10;;;2.17;;
24145;SDS011;12308;50.948;4.706;2022-07-24T12:02:08;2.92;;;2.42;;
24145;SDS011;12308;50.948;4.706;2022-07-24T12:04:35;5.10;;;2.72;;
24145;SDS011;12308;50.948;4.706;2022-07-24T12:07:10;2.75;;;2.17;;
24145;SDS011;12308;50.948;4.706;2022-07-24T12:09:47;3.22;;;2.03;;
24145;SDS011;12308;50.948;4.706;2022-07-24T12:12:21;2.63;;;2.25;;
24145;SDS011;12308;50.948;4.706;2022-07-24T12:17:19;5.15;;;2.08;;
24145;SDS011;12308;50.948;4.706;2022-07-24T12:19:52;3.47;;;2.33;;
24145;SDS011;12308;50.948;4.706;2022-07-24T12:22:20;2.92;;;2.13;;
24145;SDS011;12308;50.948;4.706;2022-07-24T12:24:47;2.88;;;2.00;;
24145;SDS011;12308;50.948;4.706;2022-07-24T12:27:31;2.40;;;2.20;;
24145;SDS011;12308;50.948;4.706;2022-07-24T12:30:01;3.75;;;2.20;;
24145;SDS011;12308;50.948;4.706;2022-07-24T12:32:28;3.42;;;2.20;;
24145;SDS011;12308;50.948;4.706;2022-07-24T12:34:54;3.08;;;2.55;;
24145;SDS011;12308;50.948;4.706;2022-07-24T12:37:21;5.45;;;2.50;;
24145;SDS011;12308;50.948;4.706;2022-07-24T12:39:48;2.70;;;2.50;;
24145;SDS011;12308;50.948;4.706;2022-07-24T12:42:16;3.67;;;2.58;;
24145;SDS011;12308;50.948;4.706;2022-07-24T12:44:43;4.85;;;2.20;;
24145;SDS011;12308;50.948;4.706;2022-07-24T12:47:10;3.08;;;2.53;;
24145;SDS011;12308;50.948;4.706;2022-07-24T12:49:44;4.40;;;2.75;;
24145;SDS011;12308;50.948;4.706;2022-07-24T12:52:19;5.70;;;2.92;;
24145;SDS011;12308;50.948;4.706;2022-07-24T12:54:49;3.53;;;2.85;;
24145;SDS011;12308;50.948;4.706;2022-07-24T12:57:15;5.38;;;3.33;;
24145;SDS011;12308;50.948;4.706;2022-07-24T12:59:45;4.40;;;3.58;;
24145;SDS011;12308;50.948;4.706;2022-07-24T13:02:15;4.70;;;2.78;;
24145;SDS011;12308;50.948;4.706;2022-07-24T13:04:49;6.80;;;2.83;;
24145;SDS011;12308;50.948;4.706;2022-07-24T13:07:17;5.13;;;3.00;;
24145;SDS011;12308;50.948;4.706;2022-07-24T13:12:14;4.05;;;3.17;;
24145;SDS011;12308;50.948;4.706;2022-07-24T13:14:40;5.95;;;3.40;;
24145;SDS011;12308;50.948;4.706;2022-07-24T13:17:11;4.78;;;3.30;;
24145;SDS011;12308;50.948;4.706;2022-07-24T13:19:39;4.88;;;3.33;;
24145;SDS011;12308;50.948;4.706;2022-07-24T13:22:06;4.38;;;3.53;;
24145;SDS011;12308;50.948;4.706;2022-07-24T13:24:32;4.10;;;3.20;;
24145;SDS011;12308;50.948;4.706;2022-07-24T13:26:59;6.15;;;3.40;;
24145;SDS011;12308;50.948;4.706;2022-07-24T13:29:25;5.22;;;3.10;;
24145;SDS011;12308;50.948;4.706;2022-07-24T13:31:51;6.28;;;3.40;;
24145;SDS011;12308;50.948;4.706;2022-07-24T13:34:18;4.82;;;3.40;;
24145;SDS011;12308;50.948;4.706;2022-07-24T13:36:44;5.05;;;3.67;;
24145;SDS011;12308;50.948;4.706;2022-07-24T13:39:11;7.65;;;3.65;;
24145;SDS011;12308;50.948;4.706;2022-07-24T13:41:37;5.53;;;3.85;;
24145;SDS011;12308;50.948;4.706;2022-07-24T13:44:04;10.32;;;5.15;;
24145;SDS011;12308;50.948;4.706;2022-07-24T13:46:30;4.63;;;3.70;;
24145;SDS011;12308;50.948;4.706;2022-07-24T13:48:57;6.15;;;3.97;;
24145;SDS011;12308;50.948;4.706;2022-07-24T13:51:24;8.10;;;4.25;;
24145;SDS011;12308;50.948;4.706;2022-07-24T13:53:50;7.22;;;3.90;;
24145;SDS011;12308;50.948;4.706;2022-07-24T13:56:16;5.10;;;4.07;;
24145;SDS011;12308;50.948;4.706;2022-07-24T13:58:42;5.07;;;3.90;;
24145;SDS011;12308;50.948;4.706;2022-07-24T14:01:08;5.80;;;3.80;;
24145;SDS011;12308;50.948;4.706;2022-07-24T14:03:35;6.57;;;3.80;;
24145;SDS011;12308;50.948;4.706;2022-07-24T14:06:02;6.45;;;3.80;;
24145;SDS011;12308;50.948;4.706;2022-07-24T14:08:28;6.13;;;3.97;;
24145;SDS011;12308;50.948;4.706;2022-07-24T14:10:54;6.20;;;3.92;;
24145;SDS011;12308;50.948;4.706;2022-07-24T14:13:19;5.22;;;4.13;;
24145;SDS011;12308;50.948;4.706;2022-07-24T14:15:45;6.00;;;3.90;;
24145;SDS011;12308;50.948;4.706;2022-07-24T14:18:11;5.07;;;3.55;;
24145;SDS011;12308;50.948;4.706;2022-07-24T14:20:37;3.97;;;3.58;;
24145;SDS011;12308;50.948;4.706;2022-07-24T14:23:03;5.75;;;3.65;;
24145;SDS011;12308;50.948;4.706;2022-07-24T14:25:28;4.55;;;3.53;;
24145;SDS011;12308;50.948;4.706;2022-07-24T14:27:54;4.38;;;3.83;;
24145;SDS011;12308;50.948;4.706;2022-07-24T14:30:20;5.20;;;3.65;;
24145;SDS011;12308;50.948;4.706;2022-07-24T14:32:45;4.47;;;3.70;;
24145;SDS011;12308;50.948;4.706;2022-07-24T14:35:11;5.68;;;3.35;;
24145;SDS011;12308;50.948;4.706;2022-07-24T14:37:37;5.60;;;3.75;;
24145;SDS011;12308;50.948;4.706;2022-07-24T14:40:04;15.10;;;4.45;;
24145;SDS011;12308;50.948;4.706;2022-07-24T14:42:32;6.57;;;3.30;;
24145;SDS011;12308;50.948;4.706;2022-07-24T14:44:58;6.78;;;3.95;;
24145;SDS011;12308;50.948;4.706;2022-07-24T14:47:23;4.03;;;3.63;;
24145;SDS011;12308;50.948;4.706;2022-07-24T14:49:49;5.00;;;4.10;;
24145;SDS011;12308;50.948;4.706;2022-07-24T14:52:15;5.85;;;3.83;;
24145;SDS011;12308;50.948;4.706;2022-07-24T14:54:43;4.30;;;3.90;;
24145;SDS011;12308;50.948;4.706;2022-07-24T14:57:10;6.60;;;4.13;;
24145;SDS011;12308;50.948;4.706;2022-07-24T14:59:36;10.18;;;4.28;;
24145;SDS011;12308;50.948;4.706;2022-07-24T15:02:01;6.65;;;3.80;;
24145;SDS011;12308;50.948;4.706;2022-07-24T15:04:27;7.78;;;4.15;;
24145;SDS011;12308;50.948;4.706;2022-07-24T15:06:53;7.22;;;4.50;;
24145;SDS011;12308;50.948;4.706;2022-07-24T15:09:18;7.75;;;4.93;;
24145;SDS011;12308;50.948;4.706;2022-07-24T15:11:44;6.30;;;4.15;;
24145;SDS011;12308;50.948;4.706;2022-07-24T15:14:10;8.00;;;4.80;;
24145;SDS011;12308;50.948;4.706;2022-07-24T15:16:35;7.97;;;4.35;;
24145;SDS011;12308;50.948;4.706;2022-07-24T15:19:01;6.82;;;4.65;;
24145;SDS011;12308;50.948;4.706;2022-07-24T15:21:27;6.13;;;3.92;;
24145;SDS011;12308;50.948;4.706;2022-07-24T15:23:53;7.75;;;4.50;;
24145;SDS011;12308;50.948;4.706;2022-07-24T15:26:18;5.95;;;4.38;;
24145;SDS011;12308;50.948;4.706;2022-07-24T15:28:44;8.13;;;4.95;;
24145;SDS011;12308;50.948;4.706;2022-07-24T15:31:09;4.80;;;3.97;;